createdAt,value
2018-07-16T00:00:07.139Z,2.10
2018-07-16T00:02:34.762Z,2.47
2018-07-16T00:05:02.139Z,2.53
2018-07-16T00:07:29.625Z,2.47
2018-07-16T00:09:57.062Z,2.40
2018-07-16T00:12:24.633Z,1.83
2018-07-16T00:14:51.962Z,1.67
2018-07-16T00:17:19.275Z,2.00
2018-07-16T00:19:46.616Z,2.13
2018-07-16T00:22:14.214Z,2.10
2018-07-16T00:24:41.818Z,2.67
2018-07-16T00:27:09.159Z,2.10
2018-07-16T00:29:36.729Z,1.90
2018-07-16T00:32:04.151Z,2.70
2018-07-16T00:34:31.848Z,2.30
2018-07-16T00:36:59.287Z,2.57
2018-07-16T00:39:26.847Z,2.20
2018-07-16T00:41:54.206Z,2.00
2018-07-16T00:44:21.829Z,2.33
2018-07-16T00:46:49.095Z,2.07
2018-07-16T00:49:16.479Z,2.37
2018-07-16T00:51:43.811Z,2.03
2018-07-16T00:54:11.296Z,2.40
2018-07-16T00:56:38.639Z,2.97
2018-07-16T00:59:05.968Z,2.00
2018-07-16T01:01:33.268Z,2.17
2018-07-16T01:04:00.612Z,2.20
2018-07-16T01:06:27.935Z,1.67
2018-07-16T01:08:55.475Z,2.20
2018-07-16T01:11:23.031Z,2.20
2018-07-16T01:13:50.520Z,2.50
2018-07-16T01:16:18.048Z,2.53
2018-07-16T01:18:45.711Z,2.80
2018-07-16T01:21:13.291Z,2.07
2018-07-16T01:23:40.663Z,2.33
2018-07-16T01:26:08.094Z,2.20
2018-07-16T01:28:35.394Z,2.37
2018-07-16T01:31:02.895Z,1.97
2018-07-16T01:33:30.472Z,2.57
2018-07-16T01:35:57.834Z,2.47
2018-07-16T01:38:25.149Z,3.07
2018-07-16T01:40:52.483Z,2.30
2018-07-16T01:43:19.998Z,3.07
2018-07-16T01:45:47.551Z,2.13
2018-07-16T01:48:14.946Z,2.47
2018-07-16T01:50:42.347Z,2.10
2018-07-16T01:53:09.836Z,2.83
2018-07-16T01:55:37.379Z,2.50
2018-07-16T01:58:04.835Z,2.60
2018-07-16T02:00:32.412Z,2.63
2018-07-16T02:02:59.830Z,2.00
2018-07-16T02:05:27.143Z,2.03
2018-07-16T02:07:54.574Z,2.43
2018-07-16T02:10:22.088Z,2.90
2018-07-16T02:12:49.478Z,2.50
2018-07-16T02:15:16.840Z,2.53
2018-07-16T02:17:44.179Z,2.83
2018-07-16T02:20:11.780Z,2.87
2018-07-16T02:22:39.099Z,2.90
2018-07-16T02:25:07.464Z,2.70
2018-07-16T02:27:34.904Z,2.10
2018-07-16T02:30:02.384Z,2.83
2018-07-16T02:32:29.743Z,2.83
2018-07-16T02:34:57.110Z,2.50
2018-07-16T02:37:24.640Z,2.97
2018-07-16T02:39:52.004Z,3.10
2018-07-16T02:42:19.304Z,2.80
2018-07-16T02:44:46.674Z,2.67
2018-07-16T02:47:14.024Z,2.60
2018-07-16T02:49:41.345Z,4.40
2018-07-16T02:52:08.672Z,3.17
2018-07-16T02:54:36.006Z,2.63
2018-07-16T02:57:03.612Z,2.70
2018-07-16T02:59:30.936Z,2.77
2018-07-16T03:01:58.502Z,2.90
2018-07-16T03:04:26.046Z,3.40
2018-07-16T03:06:53.636Z,2.97
2018-07-16T03:09:20.943Z,2.97
2018-07-16T03:11:48.926Z,2.67
2018-07-16T03:14:16.287Z,2.87
2018-07-16T03:16:43.591Z,2.80
2018-07-16T03:19:10.999Z,3.10
2018-07-16T03:21:38.338Z,2.80
2018-07-16T03:24:05.788Z,3.20
2018-07-16T03:26:33.096Z,3.03
2018-07-16T03:29:00.414Z,3.20
2018-07-16T03:31:27.768Z,3.20
2018-07-16T03:33:55.127Z,2.40
2018-07-16T03:36:22.576Z,3.40
2018-07-16T03:38:49.907Z,3.13
2018-07-16T03:41:17.258Z,2.57
2018-07-16T03:43:44.632Z,2.97
2018-07-16T03:46:12.099Z,2.83
2018-07-16T03:48:39.431Z,2.93
2018-07-16T03:51:06.912Z,3.10
2018-07-16T03:53:34.260Z,3.00
2018-07-16T03:56:01.820Z,3.37
2018-07-16T03:58:29.136Z,3.60
2018-07-16T04:00:56.432Z,2.80
2018-07-16T04:03:23.798Z,3.10
2018-07-16T04:05:51.115Z,3.37
2018-07-16T04:08:18.462Z,2.93
2018-07-16T04:10:45.835Z,2.43
2018-07-16T04:13:13.185Z,4.03
2018-07-16T04:15:40.670Z,3.37
2018-07-16T04:18:12.528Z,3.53
2018-07-16T04:20:39.879Z,2.93
2018-07-16T04:23:07.367Z,3.13
2018-07-16T04:25:34.776Z,2.93
2018-07-16T04:28:02.155Z,2.80
2018-07-16T04:30:29.482Z,3.40
2018-07-16T04:32:56.843Z,3.13
2018-07-16T04:35:24.252Z,3.20
2018-07-16T04:37:51.687Z,3.37
2018-07-16T04:40:19.011Z,3.10
2018-07-16T04:42:46.363Z,3.40
2018-07-16T04:45:13.705Z,3.40
2018-07-16T04:47:41.082Z,3.17
2018-07-16T04:50:08.498Z,3.70
2018-07-16T04:52:35.979Z,3.93
2018-07-16T04:55:03.311Z,3.97
2018-07-16T04:57:30.698Z,3.67
2018-07-16T04:59:58.615Z,3.57
2018-07-16T05:02:26.020Z,4.20
2018-07-16T05:04:53.456Z,3.73
2018-07-16T05:07:20.843Z,4.53
2018-07-16T05:09:48.617Z,3.80
2018-07-16T05:12:15.938Z,4.23
2018-07-16T05:14:43.275Z,4.63
2018-07-16T05:17:10.647Z,3.73
2018-07-16T05:19:38.013Z,4.23
2018-07-16T05:22:05.556Z,3.70
2018-07-16T05:24:32.910Z,4.30
2018-07-16T05:27:00.379Z,3.57
2018-07-16T05:29:27.813Z,3.43
2018-07-16T05:31:55.333Z,3.90
2018-07-16T05:34:22.538Z,4.10
2018-07-16T05:36:49.903Z,3.27
2018-07-16T05:39:17.259Z,3.37
2018-07-16T05:41:44.741Z,3.37
2018-07-16T05:44:12.067Z,4.03
2018-07-16T05:46:39.415Z,3.73
2018-07-16T05:49:06.767Z,3.23
2018-07-16T05:51:34.142Z,3.60
2018-07-16T05:54:01.592Z,2.70
2018-07-16T05:56:28.933Z,4.23
2018-07-16T05:58:56.267Z,2.90
2018-07-16T06:01:23.614Z,3.07
2018-07-16T06:03:51.487Z,3.43
2018-07-16T06:06:18.871Z,2.90
2018-07-16T06:08:46.231Z,2.90
2018-07-16T06:11:13.515Z,3.00
2018-07-16T06:13:41.179Z,3.07
2018-07-16T06:16:08.523Z,4.10
2018-07-16T06:18:35.846Z,2.80
2018-07-16T06:21:03.214Z,2.77
2018-07-16T06:23:30.523Z,3.03
2018-07-16T06:25:58.130Z,2.73
2018-07-16T06:28:25.470Z,2.80
2018-07-16T06:30:52.832Z,2.80
2018-07-16T06:33:20.159Z,3.10
2018-07-16T06:35:47.521Z,2.20
2018-07-16T06:38:15.294Z,2.80
2018-07-16T06:40:42.845Z,3.17
2018-07-16T06:43:09.995Z,2.90
2018-07-16T06:45:37.324Z,3.10
2018-07-16T06:48:04.671Z,2.77
2018-07-16T06:50:32.054Z,3.33
2018-07-16T06:52:59.600Z,3.13
2018-07-16T06:55:26.947Z,2.77
2018-07-16T06:57:54.461Z,2.10
2018-07-16T07:00:22.001Z,2.47
2018-07-16T07:02:49.331Z,2.03
2018-07-16T07:05:16.703Z,2.73
2018-07-16T07:07:44.239Z,2.40
2018-07-16T07:10:11.871Z,1.97
2018-07-16T07:12:39.221Z,2.13
2018-07-16T07:15:06.648Z,2.17
2018-07-16T07:17:33.959Z,2.20
2018-07-16T07:20:01.339Z,2.83
2018-07-16T07:22:28.767Z,2.50
2018-07-16T07:24:56.126Z,2.47
2018-07-16T07:27:23.503Z,2.40
2018-07-16T07:29:50.851Z,1.70
2018-07-16T07:32:18.219Z,2.10
2018-07-16T07:34:45.570Z,2.27
2018-07-16T07:37:13.024Z,2.23
2018-07-16T07:39:40.477Z,2.57
2018-07-16T07:42:07.817Z,2.60
2018-07-16T07:44:35.120Z,3.03
2018-07-16T07:47:02.703Z,2.50
2018-07-16T07:49:30.055Z,2.50
2018-07-16T07:51:57.368Z,2.60
2018-07-16T07:54:24.909Z,2.30
2018-07-16T07:56:52.147Z,2.50
2018-07-16T07:59:19.838Z,2.13
2018-07-16T08:01:47.201Z,2.17
2018-07-16T08:04:14.856Z,2.97
2018-07-16T08:06:46.447Z,2.20
2018-07-16T08:09:13.935Z,2.07
2018-07-16T08:11:41.242Z,2.60
2018-07-16T08:14:08.670Z,2.40
2018-07-16T08:16:35.999Z,2.23
2018-07-16T08:19:03.340Z,2.20
2018-07-16T08:21:31.079Z,2.20
2018-07-16T08:23:58.487Z,2.50
2018-07-16T08:26:26.255Z,2.70
2018-07-16T08:28:53.651Z,2.30
2018-07-16T08:31:21.165Z,2.23
2018-07-16T08:33:48.528Z,2.57
2018-07-16T08:36:15.859Z,1.97
2018-07-16T08:38:43.190Z,2.27
2018-07-16T08:41:10.607Z,1.87
2018-07-16T08:43:37.966Z,2.52
2018-07-16T08:46:05.292Z,2.10
2018-07-16T08:48:32.606Z,2.10
2018-07-16T08:50:59.975Z,1.90
2018-07-16T08:53:27.327Z,1.73
2018-07-16T08:55:54.680Z,2.67
2018-07-16T08:58:22.144Z,2.10
2018-07-16T09:00:49.499Z,1.90
2018-07-16T09:03:17.024Z,2.07
2018-07-16T09:05:44.443Z,2.07
2018-07-16T09:08:11.783Z,2.30
2018-07-16T09:10:39.226Z,1.87
2018-07-16T09:13:06.567Z,2.70
2018-07-16T09:15:33.989Z,1.80
2018-07-16T09:18:01.338Z,1.63
2018-07-16T09:20:28.975Z,2.33
2018-07-16T09:22:56.279Z,1.40
2018-07-16T09:25:23.696Z,1.40
2018-07-16T09:27:51.149Z,1.63
2018-07-16T09:30:18.495Z,2.00
2018-07-16T09:32:46.112Z,2.00
2018-07-16T09:35:13.482Z,1.70
2018-07-16T09:37:40.863Z,1.63
2018-07-16T09:40:08.207Z,1.90
2018-07-16T09:42:35.572Z,2.60
2018-07-16T09:45:02.910Z,1.73
2018-07-16T09:47:30.463Z,1.70
2018-07-16T09:49:58.085Z,2.00
2018-07-16T09:52:25.604Z,1.57
2018-07-16T09:54:52.962Z,2.10
2018-07-16T09:57:20.376Z,1.87
2018-07-16T09:59:47.768Z,1.70
2018-07-16T10:02:15.171Z,1.67
2018-07-16T10:04:42.584Z,2.07
2018-07-16T10:07:10.026Z,1.83
2018-07-16T10:09:37.344Z,2.03
2018-07-16T10:12:04.843Z,1.80
2018-07-16T10:14:32.267Z,2.03
2018-07-16T10:16:59.777Z,1.83
2018-07-16T10:19:27.095Z,2.10
2018-07-16T10:21:54.488Z,1.80
2018-07-16T10:24:21.895Z,2.10
2018-07-16T10:26:49.273Z,2.00
2018-07-16T10:29:16.662Z,1.90
2018-07-16T10:31:43.967Z,2.30
2018-07-16T10:34:11.446Z,1.97
2018-07-16T10:36:38.782Z,1.80
2018-07-16T10:39:06.871Z,1.83
2018-07-16T10:41:34.219Z,1.77
2018-07-16T10:44:01.757Z,1.77
2018-07-16T10:46:29.208Z,1.40
2018-07-16T10:48:57.104Z,1.90
2018-07-16T10:51:24.507Z,1.30
2018-07-16T10:53:51.919Z,1.67
2018-07-16T10:56:19.231Z,1.50
2018-07-16T10:58:46.599Z,1.63
2018-07-16T11:01:13.963Z,1.40
2018-07-16T11:03:41.515Z,1.60
2018-07-16T11:06:14.500Z,1.60
2018-07-16T11:08:41.964Z,1.87
2018-07-16T11:11:09.650Z,1.30
2018-07-16T11:13:37.072Z,1.80
2018-07-16T11:16:04.805Z,2.40
2018-07-16T11:18:32.203Z,1.60
2018-07-16T11:20:59.759Z,1.50
2018-07-16T11:23:27.132Z,1.67
2018-07-16T11:25:55.603Z,1.67
2018-07-16T11:28:23.847Z,1.40
2018-07-16T11:30:51.945Z,1.70
2018-07-16T11:33:19.304Z,1.37
2018-07-16T11:35:46.829Z,1.73
2018-07-16T11:38:14.119Z,1.50
2018-07-16T11:40:42.287Z,1.50
2018-07-16T11:43:09.991Z,1.40
2018-07-16T11:45:37.433Z,1.53
2018-07-16T11:48:05.587Z,1.40
2018-07-16T11:50:33.441Z,1.80
2018-07-16T11:53:00.807Z,1.40
2018-07-16T11:55:28.179Z,1.90
2018-07-16T11:57:55.490Z,1.40
2018-07-16T12:00:22.962Z,1.40
2018-07-16T12:02:50.390Z,2.00
2018-07-16T12:05:18.090Z,1.67
2018-07-16T12:07:45.302Z,1.60
2018-07-16T12:10:12.687Z,1.60
2018-07-16T12:12:40.117Z,1.60
2018-07-16T12:15:07.623Z,1.47
2018-07-16T12:17:34.989Z,1.57
2018-07-16T12:20:02.539Z,1.60
2018-07-16T12:22:29.889Z,1.40
2018-07-16T12:24:57.255Z,1.50
2018-07-16T12:27:24.904Z,1.30
2018-07-16T12:29:52.526Z,1.70
2018-07-16T12:32:20.016Z,1.63
2018-07-16T12:34:47.684Z,1.83
2018-07-16T12:37:14.999Z,1.20
2018-07-16T12:39:42.431Z,1.47
2018-07-16T12:42:10.032Z,1.57
2018-07-16T12:44:37.495Z,2.00
2018-07-16T12:47:04.920Z,1.80
2018-07-16T12:49:32.273Z,1.90
2018-07-16T12:51:59.881Z,2.17
2018-07-16T12:54:27.355Z,1.73
2018-07-16T12:56:54.871Z,2.10
2018-07-16T12:59:22.317Z,1.83
2018-07-16T13:01:49.782Z,1.47
2018-07-16T13:04:17.234Z,1.90
2018-07-16T13:06:44.880Z,1.90
2018-07-16T13:09:12.269Z,1.40
2018-07-16T13:11:39.570Z,2.00
2018-07-16T13:14:07.190Z,1.83
2018-07-16T13:16:34.610Z,1.80
2018-07-16T13:19:02.092Z,1.80
2018-07-16T13:21:29.421Z,1.40
2018-07-16T13:23:56.897Z,1.77
2018-07-16T13:26:24.459Z,1.53
2018-07-16T13:28:51.947Z,1.97
2018-07-16T13:31:19.715Z,1.70
2018-07-16T13:33:47.260Z,1.80
2018-07-16T13:36:14.780Z,1.93
2018-07-16T13:38:42.189Z,2.33
2018-07-16T13:41:09.536Z,2.30
2018-07-16T13:43:37.021Z,1.30
2018-07-16T13:46:04.422Z,1.70
2018-07-16T13:48:31.797Z,1.60
2018-07-16T13:50:59.147Z,2.10
2018-07-16T13:53:26.464Z,1.20
2018-07-16T13:55:53.795Z,2.20
2018-07-16T13:58:21.245Z,1.57
2018-07-16T14:00:48.657Z,1.60
2018-07-16T14:03:16.028Z,1.50
2018-07-16T14:05:43.469Z,1.53
2018-07-16T14:08:10.880Z,1.37
2018-07-16T14:10:38.246Z,1.60
2018-07-16T14:13:05.930Z,1.90
2018-07-16T14:15:33.611Z,1.80
2018-07-16T14:18:01.127Z,1.90
2018-07-16T14:20:28.479Z,2.00
2018-07-16T14:22:56.287Z,1.87
2018-07-16T14:25:23.579Z,1.40
2018-07-16T14:27:50.935Z,1.70
2018-07-16T14:30:18.464Z,2.10
2018-07-16T14:32:45.972Z,1.83
2018-07-16T14:35:13.315Z,1.80
2018-07-16T14:37:40.783Z,1.73
2018-07-16T14:40:08.244Z,1.70
2018-07-16T14:42:35.560Z,2.57
2018-07-16T14:45:03.067Z,1.90
2018-07-16T14:47:30.464Z,1.60
2018-07-16T14:49:57.891Z,2.07
2018-07-16T14:52:25.242Z,1.90
2018-07-16T14:54:53.075Z,2.80
2018-07-16T14:57:20.560Z,2.50
2018-07-16T14:59:47.932Z,2.53
2018-07-16T15:02:15.359Z,2.87
2018-07-16T15:04:42.850Z,2.60
2018-07-16T15:07:10.280Z,2.33
2018-07-16T15:09:37.809Z,2.37
2018-07-16T15:12:05.270Z,2.20
2018-07-16T15:14:32.709Z,1.90
2018-07-16T15:17:00.043Z,2.00
2018-07-16T15:19:27.552Z,2.10
2018-07-16T15:21:55.042Z,1.70
2018-07-16T15:24:22.395Z,1.60
2018-07-16T15:26:49.751Z,2.10
2018-07-16T15:29:17.300Z,1.60
2018-07-16T15:31:44.644Z,1.50
2018-07-16T15:34:12.008Z,2.23
2018-07-16T15:36:39.353Z,1.40
2018-07-16T15:39:07.240Z,1.57
2018-07-16T15:41:34.584Z,1.23
2018-07-16T15:44:01.909Z,1.47
2018-07-16T15:46:29.258Z,2.03
2018-07-16T15:48:56.595Z,1.50
2018-07-16T15:51:24.110Z,1.33
2018-07-16T15:53:51.520Z,1.67
2018-07-16T15:56:18.916Z,1.40
2018-07-16T15:58:46.348Z,1.50
2018-07-16T16:01:13.700Z,1.67
2018-07-16T16:03:41.098Z,1.47
2018-07-16T16:06:08.640Z,1.80
2018-07-16T16:08:35.987Z,1.70
2018-07-16T16:11:03.323Z,1.60
2018-07-16T16:13:30.915Z,1.63
2018-07-16T16:15:58.306Z,1.60
2018-07-16T16:18:25.590Z,1.60
2018-07-16T16:20:53.136Z,1.60
2018-07-16T16:23:20.634Z,1.70
2018-07-16T16:25:47.955Z,1.60
2018-07-16T16:28:15.331Z,1.80
2018-07-16T16:30:42.681Z,1.40
2018-07-16T16:33:10.119Z,1.63
2018-07-16T16:35:37.498Z,1.70
2018-07-16T16:38:04.960Z,1.60
2018-07-16T16:40:32.412Z,1.57
2018-07-16T16:42:59.911Z,1.50
2018-07-16T16:45:27.360Z,1.93
2018-07-16T16:47:54.702Z,1.30
2018-07-16T16:50:22.246Z,1.50
2018-07-16T16:52:49.589Z,1.60
2018-07-16T16:55:16.974Z,1.40
2018-07-16T16:57:44.326Z,1.37
2018-07-16T17:00:11.764Z,1.63
2018-07-16T17:02:39.122Z,1.40
2018-07-16T17:05:06.673Z,1.57
2018-07-16T17:07:34.012Z,2.00
2018-07-16T17:10:01.449Z,1.33
2018-07-16T17:12:28.860Z,1.40
2018-07-16T17:14:56.300Z,1.50
2018-07-16T17:17:23.737Z,1.33
2018-07-16T17:19:51.092Z,2.03
2018-07-16T17:22:18.478Z,1.50
2018-07-16T17:24:45.800Z,1.50
2018-07-16T17:27:13.217Z,1.50
2018-07-16T17:29:40.590Z,1.63
2018-07-16T17:32:07.983Z,1.63
2018-07-16T17:34:35.301Z,1.73
2018-07-16T17:37:02.784Z,1.47
2018-07-16T17:39:30.367Z,1.50
2018-07-16T17:41:57.851Z,1.60
2018-07-16T17:44:25.215Z,1.90
2018-07-16T17:46:52.579Z,2.23
2018-07-16T17:49:19.973Z,1.77
2018-07-16T17:51:47.336Z,1.53
2018-07-16T17:54:14.738Z,1.87
2018-07-16T17:56:42.094Z,1.80
2018-07-16T17:59:09.486Z,1.90
2018-07-16T18:01:36.990Z,1.70
2018-07-16T18:04:04.487Z,1.77
2018-07-16T18:06:31.868Z,1.53
2018-07-16T18:08:59.398Z,2.07
2018-07-16T18:11:26.914Z,2.10
2018-07-16T18:13:54.241Z,1.80
2018-07-16T18:16:22.500Z,2.20
2018-07-16T18:18:49.946Z,2.13
2018-07-16T18:21:17.421Z,1.63
2018-07-16T18:23:44.882Z,1.40
2018-07-16T18:26:12.302Z,1.73
2018-07-16T18:28:39.881Z,1.77
2018-07-16T18:31:07.206Z,1.80
2018-07-16T18:33:34.568Z,1.60
2018-07-16T18:36:01.952Z,1.63
2018-07-16T18:38:29.367Z,1.73
2018-07-16T18:40:56.730Z,2.10
2018-07-16T18:43:24.116Z,1.67
2018-07-16T18:45:51.460Z,2.23
2018-07-16T18:48:18.832Z,1.87
2018-07-16T18:50:46.211Z,1.90
2018-07-16T18:53:13.563Z,2.20
2018-07-16T18:55:40.903Z,2.47
2018-07-16T18:58:08.304Z,6.03
2018-07-16T19:00:35.797Z,7.90
2018-07-16T19:03:03.191Z,4.60
2018-07-16T19:05:30.622Z,3.70
2018-07-16T19:07:58.093Z,2.10
2018-07-16T19:10:25.424Z,2.20
2018-07-16T19:12:52.797Z,2.43
2018-07-16T19:15:23.112Z,2.17
2018-07-16T19:17:50.585Z,2.40
2018-07-16T19:20:17.914Z,2.03
2018-07-16T19:22:45.306Z,2.27
2018-07-16T19:25:12.699Z,1.87
2018-07-16T19:27:40.068Z,1.80
2018-07-16T19:30:07.469Z,2.13
2018-07-16T19:32:34.931Z,1.80
2018-07-16T19:35:02.272Z,2.07
2018-07-16T19:37:29.734Z,1.90
2018-07-16T19:39:57.166Z,2.60
2018-07-16T19:42:24.514Z,1.60
2018-07-16T19:44:51.950Z,1.80
2018-07-16T19:47:19.413Z,1.77
2018-07-16T19:49:46.774Z,1.97
2018-07-16T19:52:14.320Z,2.00
2018-07-16T19:54:41.876Z,2.10
2018-07-16T19:57:09.411Z,2.67
2018-07-16T19:59:36.803Z,2.70
2018-07-16T20:02:04.279Z,2.07
2018-07-16T20:04:31.799Z,2.50
2018-07-16T20:06:59.176Z,2.00
2018-07-16T20:09:27.350Z,2.80
2018-07-16T20:11:54.945Z,2.13
2018-07-16T20:14:22.511Z,2.00
2018-07-16T20:16:49.887Z,2.57
2018-07-16T20:19:17.216Z,2.07
2018-07-16T20:21:44.540Z,2.70
2018-07-16T20:24:11.907Z,2.30
2018-07-16T20:26:39.436Z,2.30
2018-07-16T20:29:06.837Z,2.47
2018-07-16T20:31:34.219Z,2.58
2018-07-16T20:34:01.667Z,2.73
2018-07-16T20:36:29.180Z,2.30
2018-07-16T20:38:57.464Z,2.07
2018-07-16T20:41:24.899Z,2.27
2018-07-16T20:43:52.274Z,2.00
2018-07-16T20:46:19.697Z,2.80
2018-07-16T20:48:47.166Z,2.63
2018-07-16T20:51:14.510Z,2.70
2018-07-16T20:53:41.978Z,2.47
2018-07-16T20:56:09.367Z,2.50
2018-07-16T20:58:36.718Z,2.50
2018-07-16T21:01:04.105Z,2.40
2018-07-16T21:03:31.499Z,2.40
2018-07-16T21:05:58.927Z,2.73
2018-07-16T21:08:26.257Z,2.20
2018-07-16T21:10:53.639Z,2.50
2018-07-16T21:13:21.105Z,2.50
2018-07-16T21:15:48.546Z,2.60
2018-07-16T21:18:15.880Z,2.90
2018-07-16T21:20:43.264Z,2.53
2018-07-16T21:23:11.159Z,3.23
2018-07-16T21:25:38.677Z,2.47
2018-07-16T21:28:06.069Z,2.70
2018-07-16T21:30:33.604Z,2.57
2018-07-16T21:33:01.468Z,2.70
2018-07-16T21:35:28.882Z,3.23
2018-07-16T21:37:56.195Z,2.77
2018-07-16T21:40:23.814Z,2.73
2018-07-16T21:42:51.108Z,3.00
2018-07-16T21:45:18.444Z,2.30
2018-07-16T21:47:46.007Z,2.30
2018-07-16T21:50:13.669Z,2.77
2018-07-16T21:52:41.238Z,3.30
2018-07-16T21:55:08.576Z,2.63
2018-07-16T21:57:35.938Z,3.23
2018-07-16T22:00:03.284Z,2.83
2018-07-16T22:02:30.658Z,3.00
2018-07-16T22:04:58.129Z,2.57
2018-07-16T22:07:25.443Z,2.80
2018-07-16T22:09:52.962Z,2.73
2018-07-16T22:12:20.571Z,3.77
2018-07-16T22:14:48.016Z,3.40
2018-07-16T22:17:15.480Z,3.30
2018-07-16T22:19:42.945Z,3.80
2018-07-16T22:22:10.315Z,3.77
2018-07-16T22:24:37.879Z,4.40
2018-07-16T22:27:05.239Z,3.20
2018-07-16T22:29:32.721Z,3.63
2018-07-16T22:32:00.199Z,3.20
2018-07-16T22:34:27.558Z,3.63
2018-07-16T22:36:54.915Z,4.00
2018-07-16T22:39:22.433Z,3.93
2018-07-16T22:41:49.824Z,3.70
2018-07-16T22:44:17.160Z,2.93
2018-07-16T22:46:44.563Z,3.90
2018-07-16T22:49:11.833Z,3.10
2018-07-16T22:51:39.185Z,3.43
2018-07-16T22:54:06.682Z,3.30
2018-07-16T22:56:34.037Z,3.40
2018-07-16T22:59:01.398Z,3.03
2018-07-16T23:01:28.728Z,3.70
2018-07-16T23:03:56.118Z,3.90
2018-07-16T23:06:23.456Z,3.67
2018-07-16T23:08:50.822Z,3.47
2018-07-16T23:11:18.296Z,2.70
2018-07-16T23:13:45.631Z,3.00
2018-07-16T23:16:12.975Z,3.10
2018-07-16T23:18:40.287Z,3.20
2018-07-16T23:21:07.621Z,3.20
2018-07-16T23:23:34.966Z,3.87
2018-07-16T23:26:02.275Z,3.60
2018-07-16T23:28:29.607Z,3.33
2018-07-16T23:30:56.952Z,4.07
2018-07-16T23:33:24.275Z,3.63
2018-07-16T23:35:51.627Z,3.30
2018-07-16T23:38:18.946Z,4.00
2018-07-16T23:40:46.292Z,3.57
2018-07-16T23:43:13.679Z,3.87
2018-07-16T23:45:41.007Z,3.70
2018-07-16T23:48:08.386Z,3.80
2018-07-16T23:50:35.743Z,3.43
2018-07-16T23:53:03.099Z,3.47
2018-07-16T23:55:30.432Z,3.63
2018-07-16T23:57:57.795Z,3.80
